METAR Data
IDs: Format: Raw Decoded Include TAF

Data at: 1346 UTC 10 Jul 2020

KHMN 101258Z AUTO 34006KT 10SM CLR 23/03 A3009 RMK AO2 SLP108 T02340028 $